METAR v bližini

 

LJMB - Maribor Edvarda Rusjana, Slovenia
Oddaljenost od postaje: SV 30,9km
Podatki zajeti: 20/11/2018 12:30
Oblačno
Oblačno
 Veter iz smeri S
Veter: S 11 km/h
Temperatura: 2°C
Občutek mraza zaradi vetra: -1°C
Rosišče: 0°C
Vlažnost: 87%
Tlak: 1011 hPa
Oblačnost: Oblačno
Vidljivost: 6 km
Podrobnosti o oblakih: Pretežno oblačno 396 m
Oblačno 1219 m
2018/11/20 11:30 LJMB 201130Z 01006KT 6000 BKN013 OVC040 02/00 Q1011 R99/290195
LJLJ - Ljubljana Brnik, Slovenia
Oddaljenost od postaje: S 103km
Podatki zajeti: 20/11/2018 13:00
Oblačno
Oblačno
 Veter iz smeri JV
Veter: JV 6 km/h
Temperatura: 1°C
Rosišče: 0°C
Vlažnost: 93%
Tlak: 1010 hPa
Oblačnost: Oblačno
Vidljivost: 10 km
Podrobnosti o oblakih: Rahlo oblačno 91 m
Pretežno oblačno 610 m
Oblačno 1524 m
2018/11/20 12:00 LJLJ 201200Z 13003KT 9999 FEW003 BKN020 OVC050 01/M00 Q1010 R30/590395 NOSIG
 
LJPZ - Portorož, Slovenia
Oddaljenost od postaje: SSZ 224km
Podatki zajeti: 20/11/2018 13:00
Pretežno oblačno
Pretežno oblačno
 Veter iz smeri spremenljiv
Veter: spremenljiv 4 km/h
Temperatura: 9°C
Rosišče: 4°C
Vlažnost: 71%
Tlak: 1005 hPa
Oblačnost: Pretežno oblačno
Vidljivost: 10 km
Podrobnosti o oblakih: Rahlo oblačno 1433 m
Delno oblačno 2286 m
Pretežno oblačno 2896 m
2018/11/20 12:00 LJPZ 201200Z VRB02KT 9999 FEW047 SCT075 BKN095 09/04 Q1005
LJCE - Cerklje, Slovenia
Oddaljenost od postaje: VSV 83,9km
Podatki zajeti: 20/11/2018 12:30
Oblačno
Oblačno
 Veter iz smeri spremenljiv
Veter: spremenljiv 2 km/h
Temperatura: 1°C
Rosišče: 0°C
Vlažnost: 93%
Tlak: 1012 hPa
Oblačnost: Oblačno
Vidljivost: 8 km
Podrobnosti o oblakih: Rahlo oblačno 213 m
Oblačno 518 m
2018/11/20 11:30 LJCE 201130Z VRB01KT 8000 FEW007 OVC017 01/00 Q1012 R09/29//95 RMK WHT
 
LOWG - Graz, Austria
Oddaljenost od postaje: SSZ 99,6km
Podatki zajeti: 20/11/2018 12:50
Pretežno oblačno
Pretežno oblačno
 Veter iz smeri spremenljiv
Veter: spremenljiv 4 km/h
Temperatura: 2°C
Rosišče: 1°C
Vlažnost: 93%
Tlak: 1011 hPa
Oblačnost: Pretežno oblačno
Vidljivost: 8 km
Podrobnosti o oblakih: Rahlo oblačno 183 m
Delno oblačno 213 m
Pretežno oblačno 457 m
2018/11/20 11:50 LOWG 201150Z VRB02KT 8000 FEW006 SCT007 BKN015 02/01 Q1011 R17/29//95 TEMPO BKN007
LOWK - Klagenfurt, Austria
Oddaljenost od postaje: SZ 121km
Podatki zajeti: 20/11/2018 12:50
Meglice, Pretežno oblačno
Meglice, Pretežno oblačno
 Veter iz smeri spremenljiv
Veter: spremenljiv 4 km/h
Temperatura: 1°C
Rosišče: 0°C
Vlažnost: 93%
Tlak: 1010 hPa
Stanje: Meglice
Oblačnost: Pretežno oblačno
Vidljivost: 5 km
Podrobnosti o oblakih: Rahlo oblačno 152 m
Delno oblačno 244 m
Pretežno oblačno 1524 m
2018/11/20 11:50 LOWK 201150Z VRB02KT 4500 BR FEW005 SCT008 BKN050 01/M00 Q1010 R10L/29//95 TEMPO 6000 NSW BKN008
 
LDRI - Rijeka, Croatia
Oddaljenost od postaje: SZ 243km
Podatki zajeti: 20/11/2018 13:00
Pretežno oblačno
Pretežno oblačno
 Veter iz smeri VSV
Veter: VSV 28 km/h, Sunek vetra: 46 km/h
Temperatura: 7°C
Občutek mraza zaradi vetra: 3°C
Rosišče: 0°C
Vlažnost: 61%
Tlak: 1007 hPa
Oblačnost: Pretežno oblačno
Vidljivost: 10 km
Podrobnosti o oblakih: Pretežno oblačno 1311 m
2018/11/20 12:00 LDRI 201200Z 06015G25KT 9999 BKN043 07/00 Q1007
LIPQ - Ronchi, Italy
Oddaljenost od postaje: VJV 224km
Podatki zajeti: 20/11/2018 12:50
Pretežno oblačno
Pretežno oblačno
 Veter iz smeri SSV
Veter: SSV 19 km/h
Temperatura: 6°C
Občutek mraza zaradi vetra: 3°C
Rosišče: 3°C
Vlažnost: 81%
Tlak: 1007 hPa
Oblačnost: Pretežno oblačno
Vidljivost: 10 km
Podrobnosti o oblakih: Pretežno oblačno 914 m
2018/11/20 11:50 LIPQ 201150Z 02010KT 9999 BKN030 06/03 Q1007
 
LDZA - Zagreb, Croatia
Oddaljenost od postaje: JJV 143km
Podatki zajeti: 20/11/2018 13:00
Rahlo dežuje, Meglice, Oblačno
Rahlo dežuje, Meglice, Oblačno
 Veter iz smeri Z
Veter: Z 6 km/h
Temperatura: 1°C
Rosišče: 0°C
Vlažnost: 93%
Tlak: 1011 hPa
Stanje: Rahlo dežuje, Meglice
Oblačnost: Oblačno
Vidljivost: 3 km
Podrobnosti o oblakih: Oblačno 396 m
2018/11/20 12:00 LDZA 201200Z 26003KT 230V290 2500 -RA BR OVC013 01/00 Q1011 R99/////// BECMG 1000
LIVT - Trieste, Italy
Oddaljenost od postaje: ZSZ 250km
Podatki zajeti: 20/11/2018 11:55
Delno oblačno
Delno oblačno
 Veter iz smeri SV
Veter: SV 35 km/h, Sunek vetra: 69 km/h
Temperatura: 6°C
Občutek mraza zaradi vetra: 1°C
Rosišče: -1°C
Vlažnost: 61%
Tlak: 1005 hPa
Oblačnost: Delno oblačno
Vidljivost: 10 km
Podrobnosti o oblakih: Rahlo oblačno 518 m
Delno oblačno 701 m
2018/11/20 10:55 LIVT 201055Z 04019G37KT 9999 FEW017 SCT023 06/M01 Q1005 RMK OVC QUK 5 QUL 3 NE VIS MAR 10 KM VIS MIN 9999
 
LIPA - Aviano, Italy
Oddaljenost od postaje: S 310km
Podatki zajeti: 20/11/2018 11:55
Pretežno oblačno
Pretežno oblačno
 Veter iz smeri VSV
Veter: VSV 17 km/h
Temperatura: 8°C
Občutek mraza zaradi vetra: 5°C
Rosišče: 5°C
Vlažnost: 82%
Tlak: 1006 hPa
Oblačnost: Pretežno oblačno
Vidljivost: 10 km
Podrobnosti o oblakih: Delno oblačno 1067 m
Pretežno oblačno 1219 m
2018/11/20 10:55 LIPA 201055Z 07009KT 9999 SCT035 BKN040 08/05 Q1006 RMK OVC VIS MIN 9999 WIND THR05 08009KT WIND THR23 06008KT A2973 BLU
LDPL - Pula, Croatia
Oddaljenost od postaje: SSV 304km
Podatki zajeti: 20/11/2018 13:00
Pretežno oblačno
Pretežno oblačno
 Veter iz smeri VSV
Veter: VSV 15 km/h
Temperatura: 10°C
Občutek mraza zaradi vetra: 8°C
Rosišče: 6°C
Vlažnost: 76%
Tlak: 1005 hPa
Oblačnost: Pretežno oblačno
Vidljivost: 10 km
Podrobnosti o oblakih: Rahlo oblačno 457 m
Pretežno oblačno 1676 m
2018/11/20 12:00 LDPL 201200Z 07008KT 9999 FEW015 BKN055 10/06 Q1005 BECMG 06005KT